createdAt,value
2019-06-07T00:00:44.554Z,101047.32
2019-06-07T00:03:26.625Z,101050.05
2019-06-07T00:05:48.506Z,101047.41
2019-06-07T00:08:27.054Z,101045.71
2019-06-07T00:10:52.343Z,101045.33
2019-06-07T00:13:23.417Z,101040.53
2019-06-07T00:15:54.482Z,101043.75
2019-06-07T00:18:26.232Z,101044.25
2019-06-07T00:20:57.396Z,101047.48
2019-06-07T00:23:28.527Z,101053.36
2019-06-07T00:25:59.542Z,101056.97
2019-06-07T00:28:30.631Z,101046.75
2019-06-07T00:31:01.698Z,101049.94
2019-06-07T00:33:32.790Z,101049.17
2019-06-07T00:36:04.129Z,101054.58
2019-06-07T00:38:35.208Z,101049.28
2019-06-07T00:41:06.258Z,101053.86
2019-06-07T00:43:37.335Z,101052.16
2019-06-07T00:46:08.395Z,101048.59
2019-06-07T00:48:39.516Z,101047.82
2019-06-07T00:51:11.620Z,101057.34
2019-06-07T00:53:42.730Z,101058.79
2019-06-07T00:56:13.904Z,101059.78
2019-06-07T00:58:44.970Z,101053.17
2019-06-07T01:01:18.837Z,101054.20
2019-06-07T01:03:48.861Z,101048.52
2019-06-07T01:06:22.970Z,101041.91
2019-06-07T01:08:52.771Z,101050.47
2019-06-07T01:11:26.009Z,101037.64
2019-06-07T01:13:56.579Z,101030.57
2019-06-07T01:16:27.716Z,101034.22
2019-06-07T01:18:58.739Z,101031.21
2019-06-07T01:21:30.124Z,101041.59
2019-06-07T01:24:11.502Z,101035.91
2019-06-07T01:26:33.912Z,101034.17
2019-06-07T01:29:05.067Z,101045.02
2019-06-07T01:31:36.156Z,101044.67
2019-06-07T01:34:07.210Z,101043.85
2019-06-07T01:36:38.267Z,101036.33
2019-06-07T01:39:09.368Z,101035.09
2019-06-07T01:41:40.429Z,101040.06
2019-06-07T01:44:11.513Z,101040.10
2019-06-07T01:46:42.566Z,101037.98
2019-06-07T01:49:13.648Z,101040.77
2019-06-07T01:51:44.703Z,101039.98
2019-06-07T01:56:48.540Z,101037.86
2019-06-07T01:59:21.928Z,101038.77
2019-06-07T02:01:52.374Z,101034.42
2019-06-07T02:04:28.870Z,101034.45
2019-06-07T02:06:56.215Z,101033.67
2019-06-07T02:09:29.911Z,101031.02
2019-06-07T02:12:00.059Z,101037.80
2019-06-07T02:14:33.597Z,101034.72
2019-06-07T02:17:04.866Z,101035.70
2019-06-07T02:19:36.002Z,101035.38
2019-06-07T02:22:07.066Z,101030.50
2019-06-07T02:24:38.171Z,101027.03
2019-06-07T02:27:09.214Z,101023.49
2019-06-07T02:29:40.298Z,101011.98
2019-06-07T02:32:11.376Z,101012.92
2019-06-07T02:34:42.428Z,101011.65
2019-06-07T02:37:13.503Z,101015.67
2019-06-07T02:39:44.591Z,101017.56
2019-06-07T02:42:15.689Z,101015.87
2019-06-07T02:44:46.811Z,101013.25
2019-06-07T02:47:19.801Z,101012.42
2019-06-07T02:49:50.862Z,101003.98
2019-06-07T02:52:24.248Z,101006.77
2019-06-07T02:54:54.751Z,101005.45
2019-06-07T02:57:29.287Z,100997.53
2019-06-07T03:00:16.793Z,100998.05
2019-06-07T03:02:40.367Z,100994.59
2019-06-07T03:05:06.537Z,100995.07
2019-06-07T03:07:40.235Z,100996.05
2019-06-07T03:10:11.750Z,101001.53
2019-06-07T03:12:45.247Z,101010.97
2019-06-07T03:15:32.626Z,101008.38
2019-06-07T03:17:50.968Z,100999.95
2019-06-07T03:20:27.601Z,101008.93
2019-06-07T03:23:01.909Z,101002.75
2019-06-07T03:25:39.234Z,101005.45
2019-06-07T03:28:10.432Z,100997.96
2019-06-07T03:30:58.136Z,101002.47
2019-06-07T03:33:14.285Z,101010.94
2019-06-07T03:35:45.368Z,101010.08
2019-06-07T03:38:16.793Z,101016.38
2019-06-07T03:40:47.874Z,101019.97
2019-06-07T03:43:18.919Z,101021.31
2019-06-07T03:45:50.033Z,101027.58
2019-06-07T03:48:21.115Z,101024.47
2019-06-07T03:51:04.109Z,101028.03
2019-06-07T03:53:24.975Z,101027.16
2019-06-07T03:55:56.103Z,101022.68
2019-06-07T03:58:32.609Z,101020.45
2019-06-07T04:01:02.115Z,101020.45
2019-06-07T04:03:40.085Z,101023.99
2019-06-07T04:06:05.596Z,101031.58
2019-06-07T04:08:41.384Z,101028.02
2019-06-07T04:11:09.435Z,101035.14
2019-06-07T04:13:42.631Z,101036.48
2019-06-07T04:16:13.276Z,101037.81
2019-06-07T04:18:44.365Z,101038.67
2019-06-07T04:21:15.422Z,101042.66
2019-06-07T04:23:46.500Z,101042.66
2019-06-07T04:26:17.604Z,101033.71
2019-06-07T04:29:31.569Z,101041.75
2019-06-07T04:31:22.287Z,101043.52
2019-06-07T04:33:53.471Z,101044.34
2019-06-07T04:36:41.809Z,101051.02
2019-06-07T04:38:59.300Z,101055.01
2019-06-07T04:41:33.618Z,101049.12
2019-06-07T04:44:04.831Z,101048.64
2019-06-07T04:46:40.758Z,101051.72
2019-06-07T04:49:12.257Z,101044.94
2019-06-07T04:51:45.242Z,101044.45
2019-06-07T04:54:16.361Z,101045.67
2019-06-07T04:56:47.459Z,101047.81
2019-06-07T05:00:00.292Z,101038.30
2019-06-07T05:01:51.309Z,101045.77
2019-06-07T05:04:22.587Z,101044.77
2019-06-07T05:06:53.664Z,101034.80
2019-06-07T05:09:24.759Z,101035.55
2019-06-07T05:11:55.828Z,101036.31
2019-06-07T05:14:26.899Z,101032.63
2019-06-07T05:16:59.265Z,101031.09
2019-06-07T05:19:31.208Z,101039.86
2019-06-07T05:22:05.022Z,101039.30
2019-06-07T05:24:38.479Z,101038.28
2019-06-07T05:27:08.693Z,101046.59
2019-06-07T05:29:41.653Z,101047.38
2019-06-07T05:32:12.661Z,101046.72
2019-06-07T05:34:47.344Z,101049.77
2019-06-07T05:37:16.533Z,101044.69
2019-06-07T05:39:47.596Z,101038.23
2019-06-07T05:42:18.651Z,101036.19
2019-06-07T05:44:49.841Z,101035.52
2019-06-07T05:47:21.041Z,101035.45
2019-06-07T05:49:52.131Z,101033.89
2019-06-07T05:52:23.217Z,101046.27
2019-06-07T05:54:54.300Z,101043.40
2019-06-07T05:57:25.356Z,101039.61
2019-06-07T05:59:56.461Z,101039.01
2019-06-07T06:02:27.532Z,101043.28
2019-06-07T06:04:58.720Z,101028.28
2019-06-07T06:07:29.877Z,101032.12
2019-06-07T06:10:00.939Z,101042.72
2019-06-07T06:12:38.216Z,101047.86
2019-06-07T06:15:07.408Z,101038.73
2019-06-07T06:17:42.666Z,101039.42
2019-06-07T06:20:11.423Z,101044.56
2019-06-07T06:22:48.755Z,101043.53
2019-06-07T06:25:31.406Z,101037.06
2019-06-07T06:28:10.039Z,101036.91
2019-06-07T06:30:22.892Z,101044.31
2019-06-07T06:32:58.102Z,101028.41
2019-06-07T06:35:26.747Z,101027.78
2019-06-07T06:37:57.831Z,101018.16
2019-06-07T06:40:28.902Z,101017.99
2019-06-07T06:42:59.989Z,101021.44
2019-06-07T06:45:31.058Z,101011.39
2019-06-07T06:48:02.177Z,101012.56
2019-06-07T06:50:33.254Z,101008.41
2019-06-07T06:53:04.318Z,101010.84
2019-06-07T06:55:35.434Z,101016.02
2019-06-07T06:58:06.507Z,101013.56
2019-06-07T07:01:04.118Z,101011.62
2019-06-07T07:03:57.419Z,101013.69
2019-06-07T07:05:56.364Z,101019.78
2019-06-07T07:08:32.620Z,101022.34
2019-06-07T07:11:03.653Z,101021.70
2019-06-07T07:13:34.753Z,101015.67
2019-06-07T07:16:05.887Z,101017.18
2019-06-07T07:18:36.959Z,101023.14
2019-06-07T07:21:08.039Z,101023.33
2019-06-07T07:23:39.121Z,101020.02
2019-06-07T07:26:10.234Z,101012.73
2019-06-07T07:28:42.987Z,101009.94
2019-06-07T07:31:14.099Z,101013.84
2019-06-07T07:36:38.808Z,101005.39
2019-06-07T07:39:04.523Z,101005.53
2019-06-07T07:41:31.303Z,101004.47
2019-06-07T07:44:07.126Z,101004.64
2019-06-07T07:46:36.755Z,100997.10
2019-06-07T07:49:07.825Z,101005.33
2019-06-07T07:51:38.891Z,101004.00
2019-06-07T07:54:11.222Z,100991.53
2019-06-07T07:56:42.400Z,100980.58
2019-06-07T07:59:13.491Z,100975.86
2019-06-07T08:01:46.011Z,100974.92
2019-06-07T08:04:17.213Z,100977.48
2019-06-07T08:06:49.031Z,100967.92
2019-06-07T08:09:21.025Z,100965.49
2019-06-07T08:11:54.870Z,100971.63
2019-06-07T08:14:24.849Z,100965.20
2019-06-07T08:16:57.895Z,100965.61
2019-06-07T08:19:28.759Z,100961.09
2019-06-07T08:22:17.546Z,100956.98
2019-06-07T08:24:52.989Z,100955.91
2019-06-07T08:27:26.719Z,100942.82
2019-06-07T08:30:46.327Z,100947.45
2019-06-07T08:32:51.506Z,100948.38
2019-06-07T08:36:03.595Z,100942.71
2019-06-07T08:38:22.128Z,100942.81
2019-06-07T08:40:35.797Z,100943.07
2019-06-07T08:43:19.943Z,100940.09
2019-06-07T08:45:39.703Z,100934.45
2019-06-07T08:48:27.556Z,100932.66
2019-06-07T08:51:08.885Z,100949.03
2019-06-07T08:53:41.269Z,100943.00
2019-06-07T08:56:18.745Z,100934.67
2019-06-07T08:59:16.544Z,100930.27
2019-06-07T09:01:52.090Z,100916.95
2019-06-07T09:04:26.980Z,100920.91
2019-06-07T09:07:08.918Z,100914.09
2019-06-07T09:09:39.401Z,100918.38
2019-06-07T09:12:18.981Z,100905.53
2019-06-07T09:18:37.982Z,100909.83
2019-06-07T09:20:58.207Z,100908.77
2019-06-07T09:24:21.291Z,100904.30
2019-06-07T09:26:25.891Z,100910.69
2019-06-07T09:28:58.446Z,100902.89
2019-06-07T09:31:51.181Z,100891.20
2019-06-07T09:34:13.708Z,100894.55
2019-06-07T09:36:39.956Z,100880.87
2019-06-07T09:39:12.691Z,100887.50
2019-06-07T09:41:49.641Z,100891.55
2019-06-07T09:44:24.739Z,100898.31
2019-06-07T09:47:12.939Z,100891.55
2019-06-07T09:49:32.213Z,100887.91
2019-06-07T09:52:02.216Z,100882.17
2019-06-07T09:57:16.697Z,100878.39
2019-06-07T09:59:48.048Z,100876.77
2019-06-07T10:02:19.188Z,100878.34
2019-06-07T10:04:50.295Z,100873.98
2019-06-07T10:07:31.280Z,100877.16
2019-06-07T10:10:19.831Z,100869.22
2019-06-07T10:12:27.073Z,100861.86
2019-06-07T10:14:58.719Z,100859.09
2019-06-07T10:17:30.753Z,100861.55
2019-06-07T10:20:02.575Z,100851.89
2019-06-07T10:22:34.642Z,100845.77
2019-06-07T10:25:08.507Z,100847.75
2019-06-07T10:27:39.770Z,100842.17
2019-06-07T10:30:12.239Z,100835.56
2019-06-07T10:32:43.284Z,100830.23
2019-06-07T10:35:16.424Z,100835.02
2019-06-07T10:37:52.363Z,100824.49
2019-06-07T10:40:25.306Z,100824.89
2019-06-07T10:42:57.429Z,100816.37
2019-06-07T10:45:28.604Z,100809.61
2019-06-07T10:47:59.617Z,100813.48
2019-06-07T10:50:30.718Z,100813.89
2019-06-07T10:53:02.338Z,100803.94
2019-06-07T10:55:33.537Z,100799.48
2019-06-07T10:58:05.002Z,100791.77
2019-06-07T11:00:36.380Z,100792.31
2019-06-07T11:03:08.041Z,100795.42
2019-06-07T11:05:39.322Z,100791.36
2019-06-07T11:08:10.441Z,100790.81
2019-06-07T11:10:41.460Z,100786.64
2019-06-07T11:13:12.547Z,100783.68
2019-06-07T11:15:43.630Z,100779.36
2019-06-07T11:18:32.487Z,100777.06
2019-06-07T11:21:12.185Z,100779.22
2019-06-07T11:23:44.516Z,100774.97
2019-06-07T11:26:21.660Z,100764.32
2019-06-07T11:28:52.763Z,100763.70
2019-06-07T11:31:25.932Z,100758.63
2019-06-07T11:33:56.707Z,100754.56
2019-06-07T11:36:27.910Z,100751.67
2019-06-07T11:38:58.973Z,100747.47
2019-06-07T11:41:30.060Z,100755.00
2019-06-07T11:44:04.175Z,100745.53
2019-06-07T11:46:35.246Z,100737.14
2019-06-07T11:49:06.691Z,100731.31
2019-06-07T11:51:51.822Z,100727.96
2019-06-07T11:54:25.472Z,100736.43
2019-06-07T11:56:57.262Z,100727.48
2019-06-07T11:59:28.315Z,100725.50
2019-06-07T12:01:59.422Z,100717.63
2019-06-07T12:04:34.802Z,100722.22
2019-06-07T12:07:04.468Z,100712.38
2019-06-07T12:09:36.514Z,100707.63
2019-06-07T12:12:08.208Z,100712.60
2019-06-07T12:14:39.360Z,100702.03
2019-06-07T12:17:11.238Z,100696.16
2019-06-07T12:19:42.375Z,100682.50
2019-06-07T12:22:14.048Z,100688.33
2019-06-07T12:24:45.425Z,100683.69
2019-06-07T12:27:16.730Z,100682.13
2019-06-07T12:29:47.959Z,100675.94
2019-06-07T12:32:19.609Z,100680.38
2019-06-07T12:34:54.075Z,100664.68
2019-06-07T12:37:42.081Z,100666.41
2019-06-07T12:39:57.913Z,100655.56
2019-06-07T12:42:33.512Z,100657.70
2019-06-07T12:45:08.935Z,100652.64
2019-06-07T12:47:39.205Z,100647.95
2019-06-07T12:50:13.382Z,100650.46
2019-06-07T12:52:45.777Z,100641.70
2019-06-07T12:55:18.156Z,100636.44
2019-06-07T12:57:50.178Z,100638.02
2019-06-07T13:00:22.711Z,100630.33
2019-06-07T13:02:53.886Z,100638.69
2019-06-07T13:05:24.922Z,100633.81
2019-06-07T13:08:02.175Z,100613.60
2019-06-07T13:10:36.070Z,100624.64
2019-06-07T13:13:07.138Z,100622.87
2019-06-07T13:15:38.223Z,100623.29
2019-06-07T13:18:17.446Z,100613.94
2019-06-07T13:20:49.103Z,100619.34
2019-06-07T13:23:20.847Z,100614.82
2019-06-07T13:25:52.282Z,100611.42
2019-06-07T13:28:24.619Z,100605.69
2019-06-07T13:30:55.871Z,100609.87
2019-06-07T13:33:33.933Z,100607.99
2019-06-07T13:35:59.731Z,100600.48
2019-06-07T13:38:30.820Z,100603.45
2019-06-07T13:41:01.874Z,100598.39
2019-06-07T13:43:34.331Z,100595.89
2019-06-07T13:46:05.411Z,100597.17
2019-06-07T13:48:36.496Z,100590.63
2019-06-07T13:51:07.558Z,100586.12
2019-06-07T13:53:38.642Z,100591.08
2019-06-07T13:56:09.700Z,100583.38
2019-06-07T13:58:40.802Z,100577.33
2019-06-07T14:01:11.863Z,100582.54
2019-06-07T14:03:42.932Z,100574.40
2019-06-07T14:06:14.012Z,100575.27
2019-06-07T14:08:45.073Z,100563.22
2019-06-07T14:11:16.152Z,100560.48
2019-06-07T14:13:47.223Z,100553.00
2019-06-07T14:16:18.314Z,100554.11
2019-06-07T14:18:49.370Z,100549.42
2019-06-07T14:21:20.491Z,100542.73
2019-06-07T14:23:51.542Z,100549.66
2019-06-07T14:26:23.212Z,100537.65
2019-06-07T14:32:19.082Z,100533.70
2019-06-07T14:34:50.162Z,100527.30
2019-06-07T14:37:22.688Z,100516.09
2019-06-07T14:39:53.888Z,100517.12
2019-06-07T14:42:25.373Z,100512.12
2019-06-07T14:44:56.535Z,100511.05
2019-06-07T14:47:27.940Z,100514.98
2019-06-07T14:49:59.058Z,100511.39
2019-06-07T14:52:30.671Z,100499.64
2019-06-07T14:55:01.877Z,100498.28
2019-06-07T14:57:33.666Z,100497.16
2019-06-07T15:00:11.461Z,100500.60
2019-06-07T15:02:41.966Z,100495.95
2019-06-07T15:05:14.634Z,100491.72
2019-06-07T15:07:45.693Z,100491.34
2019-06-07T15:10:17.077Z,100477.48
2019-06-07T15:12:48.216Z,100476.85
2019-06-07T15:15:19.479Z,100472.11
2019-06-07T15:17:50.580Z,100475.44
2019-06-07T15:20:22.694Z,100460.72
2019-06-07T15:22:53.773Z,100458.20
2019-06-07T15:25:24.928Z,100462.03
2019-06-07T15:27:56.019Z,100454.95
2019-06-07T15:30:27.444Z,100445.19
2019-06-07T15:32:59.796Z,100442.95
2019-06-07T15:35:32.142Z,100444.90
2019-06-07T15:38:03.399Z,100442.31
2019-06-07T15:40:35.267Z,100430.28
2019-06-07T15:43:06.516Z,100439.05
2019-06-07T15:45:37.838Z,100430.13
2019-06-07T15:48:08.960Z,100411.34
2019-06-07T15:50:40.443Z,100408.47
2019-06-07T15:53:11.782Z,100393.77
2019-06-07T15:55:45.629Z,100384.45
2019-06-07T15:58:15.652Z,100375.56
2019-06-07T16:00:49.920Z,100364.87
2019-06-07T16:03:19.513Z,100368.10
2019-06-07T16:05:50.573Z,100367.23
2019-06-07T16:08:21.648Z,100371.79
2019-06-07T16:10:52.727Z,100356.95
2019-06-07T16:13:23.818Z,100344.34
2019-06-07T16:15:54.872Z,100332.61
2019-06-07T16:18:25.953Z,100324.59
2019-06-07T16:20:56.995Z,100335.45
2019-06-07T16:23:28.068Z,100331.48
2019-06-07T16:25:59.112Z,100338.75
2019-06-07T16:28:30.190Z,100344.19
2019-06-07T16:31:01.277Z,100337.02
2019-06-07T16:33:32.327Z,100350.59
2019-06-07T16:36:03.391Z,100353.92
2019-06-07T16:38:34.453Z,100354.64
2019-06-07T16:41:06.367Z,100351.29
2019-06-07T16:43:38.592Z,100359.53
2019-06-07T16:46:09.742Z,100350.52
2019-06-07T16:48:40.933Z,100345.57
2019-06-07T16:51:11.963Z,100341.88
2019-06-07T16:53:44.453Z,100338.30
2019-06-07T16:56:15.691Z,100342.86
2019-06-07T16:58:46.741Z,100347.80
2019-06-07T17:01:17.815Z,100349.16
2019-06-07T17:03:48.889Z,100355.08
2019-06-07T17:06:19.940Z,100356.33
2019-06-07T17:08:52.896Z,100359.44
2019-06-07T17:11:23.955Z,100353.48
2019-06-07T17:13:55.014Z,100353.88
2019-06-07T17:16:26.085Z,100350.28
2019-06-07T17:18:57.162Z,100347.57
2019-06-07T17:21:28.309Z,100343.98
2019-06-07T17:23:59.382Z,100346.21
2019-06-07T17:26:30.419Z,100344.85
2019-06-07T17:29:01.493Z,100341.78
2019-06-07T17:31:32.566Z,100344.98
2019-06-07T17:34:03.643Z,100338.87
2019-06-07T17:36:34.745Z,100343.09
2019-06-07T17:39:10.281Z,100340.08
2019-06-07T17:41:52.392Z,100336.73
2019-06-07T17:44:14.247Z,100340.41
2019-06-07T17:46:45.582Z,100347.43
2019-06-07T17:49:20.587Z,100346.55
2019-06-07T17:51:52.259Z,100342.48
2019-06-07T17:54:23.375Z,100345.30
2019-06-07T17:56:54.452Z,100344.95
2019-06-07T17:59:25.499Z,100345.43
2019-06-07T18:02:13.614Z,100345.43
2019-06-07T18:04:31.992Z,100337.28
2019-06-07T18:07:03.137Z,100338.25
2019-06-07T18:09:37.094Z,100345.66
2019-06-07T18:12:08.169Z,100344.50
2019-06-07T18:14:39.217Z,100333.38
2019-06-07T18:17:10.336Z,100321.27
2019-06-07T18:19:41.409Z,100330.77
2019-06-07T18:22:12.462Z,100337.16
2019-06-07T18:24:44.422Z,100333.70
2019-06-07T18:27:15.472Z,100335.16
2019-06-07T18:29:46.555Z,100333.91
2019-06-07T18:32:17.596Z,100338.10
2019-06-07T18:34:48.768Z,100328.93
2019-06-07T18:37:19.799Z,100330.09
2019-06-07T18:39:51.118Z,100323.14
2019-06-07T18:42:22.209Z,100323.73
2019-06-07T18:44:53.281Z,100319.01
2019-06-07T18:47:24.349Z,100298.02
2019-06-07T18:49:57.991Z,100292.30
2019-06-07T18:52:31.163Z,100303.28
2019-06-07T18:55:02.239Z,100318.78
2019-06-07T18:57:33.335Z,100330.82
2019-06-07T19:00:16.767Z,100336.47
2019-06-07T19:02:47.873Z,100344.80
2019-06-07T19:05:19.244Z,100329.72
2019-06-07T19:07:50.497Z,100332.26
2019-06-07T19:10:21.911Z,100339.65
2019-06-07T19:12:53.298Z,100340.61
2019-06-07T19:15:25.599Z,100349.81
2019-06-07T19:17:58.023Z,100359.43
2019-06-07T19:20:29.776Z,100356.55
2019-06-07T19:23:00.820Z,100352.66
2019-06-07T19:25:31.881Z,100355.11
2019-06-07T19:28:02.967Z,100361.23
2019-06-07T19:30:34.143Z,100367.14
2019-06-07T19:33:05.178Z,100370.88
2019-06-07T19:35:36.231Z,100382.72
2019-06-07T19:38:07.282Z,100380.09
2019-06-07T19:40:38.378Z,100376.60
2019-06-07T19:43:09.427Z,100381.15
2019-06-07T19:45:40.568Z,100399.65
2019-06-07T19:48:11.625Z,100403.45
2019-06-07T19:50:42.700Z,100412.93
2019-06-07T19:53:13.812Z,100420.67
2019-06-07T19:55:44.869Z,100422.51
2019-06-07T19:58:15.972Z,100419.92
2019-06-07T20:00:47.477Z,100432.12
2019-06-07T20:03:18.577Z,100431.34
2019-06-07T20:05:49.631Z,100432.30
2019-06-07T20:08:20.679Z,100429.59
2019-06-07T20:10:51.752Z,100417.00
2019-06-07T20:13:22.808Z,100415.28
2019-06-07T20:15:54.713Z,100413.14
2019-06-07T20:18:27.958Z,100407.84
2019-06-07T20:20:58.694Z,100409.77
2019-06-07T20:23:29.757Z,100414.41
2019-06-07T20:26:00.846Z,100421.70
2019-06-07T20:28:31.890Z,100414.14
2019-06-07T20:31:03.937Z,100437.74
2019-06-07T20:33:35.151Z,100504.34
2019-06-07T20:36:06.201Z,100525.45
2019-06-07T20:38:37.275Z,100550.05
2019-06-07T20:41:08.325Z,100594.13
2019-06-07T20:43:39.394Z,100625.48
2019-06-07T20:46:10.468Z,100677.17
2019-06-07T20:48:41.525Z,100726.62
2019-06-07T20:51:12.595Z,100761.59
2019-06-07T20:53:43.679Z,100731.05
2019-06-07T20:56:14.724Z,100654.88
2019-06-07T20:58:45.806Z,100580.98
2019-06-07T21:01:16.877Z,100552.78
2019-06-07T21:03:47.922Z,100549.22
2019-06-07T21:06:19.013Z,100549.41
2019-06-07T21:08:50.046Z,100599.25
2019-06-07T21:11:21.120Z,100651.38
2019-06-07T21:13:52.186Z,100678.76
2019-06-07T21:16:23.240Z,100678.23
2019-06-07T21:18:54.307Z,100675.09
2019-06-07T21:21:25.358Z,100691.55
2019-06-07T21:23:56.426Z,100688.02
2019-06-07T21:26:27.490Z,100731.92
2019-06-07T21:28:58.538Z,100735.75
2019-06-07T21:31:29.594Z,100754.16
2019-06-07T21:34:01.378Z,100791.75
2019-06-07T21:36:38.796Z,100807.34
2019-06-07T21:39:10.297Z,100799.23
2019-06-07T21:41:41.409Z,100789.81
2019-06-07T21:44:24.743Z,100772.38
2019-06-07T21:46:55.813Z,100774.27
2019-06-07T21:49:26.889Z,100771.76
2019-06-07T21:51:57.969Z,100775.42
2019-06-07T21:54:29.278Z,100774.08
2019-06-07T21:57:00.354Z,100752.98
2019-06-07T21:59:31.419Z,100750.25
2019-06-07T22:02:13.618Z,100739.00
2019-06-07T22:04:44.853Z,100732.23
2019-06-07T22:07:15.925Z,100742.98
2019-06-07T22:09:59.245Z,100777.81
2019-06-07T22:12:30.335Z,100785.78
2019-06-07T22:15:29.095Z,100784.48
2019-06-07T22:17:43.241Z,100799.69
2019-06-07T22:20:14.789Z,100806.53
2019-06-07T22:22:45.877Z,100815.99
2019-06-07T22:25:16.988Z,100804.95
2019-06-07T22:27:48.085Z,100793.48
2019-06-07T22:30:19.277Z,100774.42
2019-06-07T22:32:50.371Z,100774.55
2019-06-07T22:35:21.522Z,100768.80
2019-06-07T22:37:52.607Z,100763.97
2019-06-07T22:40:23.682Z,100716.98
2019-06-07T22:42:54.733Z,100670.55
2019-06-07T22:45:25.817Z,100674.67
2019-06-07T22:47:56.883Z,100674.31
2019-06-07T22:50:27.969Z,100667.17
2019-06-07T22:52:59.031Z,100678.42
2019-06-07T22:55:30.111Z,100680.23
2019-06-07T22:58:01.242Z,100691.36
2019-06-07T23:00:36.647Z,100700.42
2019-06-07T23:03:08.522Z,100718.81
2019-06-07T23:05:39.650Z,100756.51
2019-06-07T23:08:11.051Z,100793.59
2019-06-07T23:10:42.413Z,100804.75
2019-06-07T23:13:13.659Z,100816.84
2019-06-07T23:15:45.752Z,100823.02
2019-06-07T23:18:17.693Z,100813.61
2019-06-07T23:20:48.797Z,100819.41
2019-06-07T23:23:20.068Z,100817.64
2019-06-07T23:25:51.122Z,100802.82
2019-06-07T23:28:28.044Z,100798.38
2019-06-07T23:30:59.189Z,100774.19
2019-06-07T23:33:30.248Z,100764.45
2019-06-07T23:36:04.534Z,100788.21
2019-06-07T23:38:35.606Z,100777.05
2019-06-07T23:41:06.664Z,100773.09
2019-06-07T23:43:37.778Z,100795.09
2019-06-07T23:46:08.837Z,100803.16
2019-06-07T23:48:39.915Z,100820.62
2019-06-07T23:51:11.480Z,100828.72
2019-06-07T23:53:42.656Z,100821.62
2019-06-07T23:56:13.843Z,100788.55
2019-06-07T23:58:44.886Z,100789.47
